createdAt,value
2022-08-02T00:01:47.804Z,20.40
2022-08-02T00:04:32.333Z,20.42
2022-08-02T00:07:04.080Z,20.34
2022-08-02T00:09:35.036Z,20.18
2022-08-02T00:12:09.175Z,20.27
2022-08-02T00:14:46.542Z,20.38
2022-08-02T00:17:18.509Z,20.37
2022-08-02T00:19:55.332Z,20.33
2022-08-02T00:22:30.058Z,20.29
2022-08-02T00:25:07.268Z,20.33
2022-08-02T00:27:37.539Z,20.33
2022-08-02T00:30:14.272Z,20.37
2022-08-02T00:32:50.005Z,20.29
2022-08-02T00:35:28.741Z,20.26
2022-08-02T00:38:01.448Z,20.03
2022-08-02T00:40:32.829Z,20.13
2022-08-02T00:43:12.744Z,20.17
2022-08-02T00:46:02.858Z,20.08
2022-08-02T00:48:41.398Z,20.21
2022-08-02T00:51:17.863Z,20.34
2022-08-02T00:53:49.625Z,20.05
2022-08-02T00:56:21.504Z,19.76
2022-08-02T00:58:52.695Z,19.95
2022-08-02T01:04:17.537Z,19.88
2022-08-02T01:07:12.176Z,19.99
2022-08-02T01:09:45.622Z,19.86
2022-08-02T01:12:19.074Z,19.73
2022-08-02T01:15:05.228Z,19.93
2022-08-02T01:18:05.018Z,19.89
2022-08-02T01:21:05.108Z,19.98
2022-08-02T01:23:35.611Z,19.92
2022-08-02T01:26:31.061Z,20.04
2022-08-02T01:29:21.938Z,19.79
2022-08-02T01:31:52.074Z,19.73
2022-08-02T01:34:43.207Z,19.61
2022-08-02T01:37:25.360Z,19.47
2022-08-02T01:40:01.323Z,19.50
2022-08-02T01:42:42.063Z,19.42
2022-08-02T01:45:21.076Z,19.65
2022-08-02T01:47:51.929Z,19.60
2022-08-02T01:50:34.979Z,19.62
2022-08-02T01:53:13.624Z,19.58
2022-08-02T01:55:58.142Z,19.55
2022-08-02T01:58:32.235Z,19.72
2022-08-02T02:01:09.738Z,19.67
2022-08-02T02:03:53.785Z,19.67
2022-08-02T02:06:35.641Z,19.53
2022-08-02T02:09:09.639Z,19.49
2022-08-02T02:12:06.462Z,19.64
2022-08-02T02:14:51.653Z,19.50
2022-08-02T02:17:53.148Z,19.56
2022-08-02T02:20:30.105Z,19.63
2022-08-02T02:23:09.611Z,19.54
2022-08-02T02:25:54.964Z,19.47
2022-08-02T02:28:30.390Z,19.45
2022-08-02T02:31:15.211Z,19.42
2022-08-02T02:33:56.375Z,19.31
2022-08-02T02:36:27.602Z,19.15
2022-08-02T02:39:03.523Z,19.22
2022-08-02T02:41:41.438Z,19.19
2022-08-02T02:44:22.310Z,19.23
2022-08-02T02:46:56.492Z,19.35
2022-08-02T02:49:37.452Z,19.24
2022-08-02T02:52:09.812Z,19.16
2022-08-02T02:54:50.846Z,19.25
2022-08-02T02:57:24.542Z,19.35
2022-08-02T02:59:57.546Z,19.22
2022-08-02T03:02:33.187Z,19.23
2022-08-02T03:05:04.144Z,19.16
2022-08-02T03:07:34.761Z,19.23
2022-08-02T03:10:09.899Z,19.23
2022-08-02T03:12:41.012Z,19.26
2022-08-02T03:15:17.274Z,19.35
2022-08-02T03:18:03.038Z,19.26
2022-08-02T03:20:45.611Z,19.04
2022-08-02T03:23:23.632Z,19.02
2022-08-02T03:25:53.316Z,18.90
2022-08-02T03:28:23.852Z,18.91
2022-08-02T03:30:59.667Z,19.00
2022-08-02T03:33:40.556Z,18.95
2022-08-02T03:36:19.205Z,18.78
2022-08-02T03:38:58.007Z,18.95
2022-08-02T03:41:30.049Z,18.99
2022-08-02T03:44:07.611Z,18.93
2022-08-02T03:46:47.289Z,18.90
2022-08-02T03:49:27.415Z,18.94
2022-08-02T03:51:59.374Z,18.84
2022-08-02T03:54:45.832Z,18.39
2022-08-02T04:00:04.768Z,18.76
2022-08-02T04:02:52.497Z,18.74
2022-08-02T04:05:26.878Z,18.72
2022-08-02T04:08:36.728Z,18.67
2022-08-02T04:11:14.655Z,18.61
2022-08-02T04:13:45.128Z,18.43
2022-08-02T04:16:29.340Z,18.47
2022-08-02T04:19:17.407Z,18.78
2022-08-02T04:22:01.878Z,18.72
2022-08-02T04:24:36.112Z,18.75
2022-08-02T04:27:49.890Z,18.90
2022-08-02T04:30:13.638Z,18.86
2022-08-02T04:32:55.795Z,18.94
2022-08-02T04:35:26.351Z,19.08
2022-08-02T04:38:08.583Z,19.05
2022-08-02T04:40:49.751Z,18.93
2022-08-02T04:43:30.081Z,18.87
2022-08-02T04:46:10.549Z,18.95
2022-08-02T04:48:45.635Z,19.10
2022-08-02T04:51:17.602Z,19.03
2022-08-02T04:53:51.157Z,19.09
2022-08-02T04:56:22.177Z,19.00
2022-08-02T04:58:55.906Z,19.07
2022-08-02T05:01:32.328Z,19.05
2022-08-02T05:04:01.382Z,19.02
2022-08-02T05:06:31.954Z,18.98
2022-08-02T05:09:05.714Z,18.99
2022-08-02T05:11:37.404Z,19.07
2022-08-02T05:14:26.685Z,19.25
2022-08-02T05:17:01.050Z,19.31
2022-08-02T05:19:29.297Z,19.40
2022-08-02T05:22:00.310Z,19.26
2022-08-02T05:24:30.703Z,19.44
2022-08-02T05:27:01.710Z,19.52
2022-08-02T05:29:53.639Z,19.73
2022-08-02T05:32:28.000Z,19.66
2022-08-02T05:35:01.729Z,19.65
2022-08-02T05:37:36.289Z,19.54
2022-08-02T05:40:15.354Z,19.38
2022-08-02T05:42:51.151Z,19.36
2022-08-02T05:45:20.328Z,19.61
2022-08-02T05:47:53.843Z,19.77
2022-08-02T05:50:27.133Z,19.91
2022-08-02T05:53:36.981Z,20.02
2022-08-02T05:56:48.093Z,19.96
2022-08-02T05:59:54.837Z,20.03
2022-08-02T06:02:54.219Z,20.13
2022-08-02T06:05:29.151Z,20.15
2022-08-02T06:08:07.676Z,20.20
2022-08-02T06:10:39.634Z,20.12
2022-08-02T06:13:17.444Z,20.00
2022-08-02T06:15:53.545Z,20.09
2022-08-02T06:18:28.299Z,20.04
2022-08-02T06:22:31.880Z,20.17
2022-08-02T06:24:17.295Z,20.24
2022-08-02T06:27:00.667Z,20.19
2022-08-02T06:29:44.753Z,20.28
2022-08-02T06:32:21.577Z,20.31
2022-08-02T06:34:55.212Z,20.15
2022-08-02T06:37:40.849Z,20.24
2022-08-02T06:40:42.264Z,19.88
2022-08-02T06:43:26.091Z,19.98
2022-08-02T06:47:07.417Z,20.15
2022-08-02T06:49:00.531Z,20.26
2022-08-02T06:51:34.192Z,20.37
2022-08-02T06:54:16.084Z,20.47
2022-08-02T06:56:47.167Z,20.53
2022-08-02T06:59:23.343Z,20.36
2022-08-02T07:01:53.684Z,20.40
2022-08-02T07:04:27.888Z,20.21
2022-08-02T07:06:59.278Z,20.29
2022-08-02T07:09:33.512Z,19.94
2022-08-02T07:12:04.425Z,20.29
2022-08-02T07:14:43.826Z,20.32
2022-08-02T07:17:19.896Z,20.49
2022-08-02T07:19:48.212Z,20.39
2022-08-02T07:22:24.707Z,20.38
2022-08-02T07:25:01.971Z,20.13
2022-08-02T07:27:33.804Z,20.36
2022-08-02T07:30:11.565Z,20.50
2022-08-02T07:32:50.780Z,20.73
2022-08-02T07:35:28.957Z,20.69
2022-08-02T07:38:02.181Z,20.78
2022-08-02T07:40:34.756Z,20.86
2022-08-02T07:43:05.054Z,20.84
2022-08-02T07:48:22.310Z,20.88
2022-08-02T07:51:00.074Z,21.01
2022-08-02T07:53:51.029Z,21.03
2022-08-02T07:56:19.956Z,20.86
2022-08-02T07:58:50.533Z,20.96
2022-08-02T08:01:18.902Z,21.17
2022-08-02T08:03:52.592Z,21.07
2022-08-02T08:06:28.591Z,21.09
2022-08-02T08:09:07.603Z,21.06
2022-08-02T08:11:41.010Z,21.29
2022-08-02T08:14:16.471Z,21.19
2022-08-02T08:16:56.079Z,21.12
2022-08-02T08:19:43.899Z,21.10
2022-08-02T08:22:20.010Z,21.18
2022-08-02T08:24:56.372Z,21.35
2022-08-02T08:27:28.408Z,21.45
2022-08-02T08:30:11.719Z,21.45
2022-08-02T08:32:45.626Z,21.33
2022-08-02T08:35:19.935Z,21.54
2022-08-02T08:37:50.856Z,21.56
2022-08-02T08:40:25.122Z,21.78
2022-08-02T08:43:05.145Z,21.95
2022-08-02T08:45:37.261Z,22.11
2022-08-02T08:48:36.531Z,22.24
2022-08-02T08:51:22.481Z,22.45
2022-08-02T08:54:02.734Z,22.45
2022-08-02T08:56:44.217Z,22.64
2022-08-02T08:59:15.254Z,22.28
2022-08-02T09:01:52.907Z,22.50
2022-08-02T09:04:36.316Z,22.73
2022-08-02T09:07:10.711Z,23.18
2022-08-02T09:09:41.341Z,23.38
2022-08-02T09:12:22.220Z,23.16
2022-08-02T09:15:00.685Z,22.83
2022-08-02T09:17:34.579Z,22.77
2022-08-02T09:20:12.793Z,22.77
2022-08-02T09:22:44.510Z,22.94
2022-08-02T09:25:24.441Z,23.01
2022-08-02T09:28:06.476Z,23.67
2022-08-02T09:30:54.323Z,23.80
2022-08-02T09:33:37.548Z,23.75
2022-08-02T09:36:11.936Z,23.77
2022-08-02T09:39:00.586Z,23.53
2022-08-02T09:41:52.847Z,24.09
2022-08-02T09:44:26.856Z,23.75
2022-08-02T09:47:05.933Z,23.97
2022-08-02T09:49:36.944Z,24.23
2022-08-02T09:52:09.957Z,24.66
2022-08-02T09:54:44.906Z,24.89
2022-08-02T09:57:15.223Z,25.02
2022-08-02T09:59:56.730Z,25.47
2022-08-02T10:02:28.311Z,25.63
2022-08-02T10:05:04.516Z,25.51
2022-08-02T10:07:44.468Z,25.66
2022-08-02T10:10:17.952Z,25.62
2022-08-02T10:12:55.148Z,25.21
2022-08-02T10:15:27.407Z,25.20
2022-08-02T10:17:58.591Z,25.61
2022-08-02T10:20:51.108Z,25.53
2022-08-02T10:23:27.098Z,25.95
2022-08-02T10:26:12.476Z,26.16
2022-08-02T10:28:48.795Z,26.47
2022-08-02T10:31:28.894Z,26.10
2022-08-02T10:34:09.160Z,26.41
2022-08-02T10:36:40.804Z,25.97
2022-08-02T10:39:13.631Z,25.92
2022-08-02T10:41:52.115Z,26.32
2022-08-02T10:44:41.445Z,27.26
2022-08-02T10:47:33.164Z,27.31
2022-08-02T10:50:04.186Z,27.26
2022-08-02T10:52:36.730Z,27.72
2022-08-02T10:55:22.126Z,27.71
2022-08-02T10:58:30.493Z,27.56
2022-08-02T11:01:10.238Z,28.25
2022-08-02T11:03:52.793Z,27.58
2022-08-02T11:06:26.491Z,27.84
2022-08-02T11:09:49.498Z,28.26
2022-08-02T11:12:25.460Z,28.74
2022-08-02T11:15:08.298Z,28.69
2022-08-02T11:18:02.558Z,28.51
2022-08-02T11:20:39.735Z,28.49
2022-08-02T11:23:49.298Z,28.51
2022-08-02T11:26:52.163Z,29.12
2022-08-02T11:29:23.695Z,29.19
2022-08-02T11:31:54.501Z,29.17
2022-08-02T11:34:37.538Z,29.17
2022-08-02T11:37:23.803Z,28.70
2022-08-02T11:39:59.035Z,28.42
2022-08-02T11:42:43.856Z,29.15
2022-08-02T11:45:21.142Z,29.96
2022-08-02T11:47:54.679Z,29.88
2022-08-02T11:50:33.101Z,29.44
2022-08-02T11:53:09.572Z,29.71
2022-08-02T11:55:44.406Z,29.11
2022-08-02T11:58:20.250Z,29.51
2022-08-02T12:00:53.503Z,29.16
2022-08-02T12:03:23.841Z,29.82
2022-08-02T12:06:04.381Z,29.94
2022-08-02T12:08:54.298Z,30.35
2022-08-02T12:11:25.505Z,30.04
2022-08-02T12:14:02.603Z,29.96
2022-08-02T12:17:02.188Z,29.23
2022-08-02T12:19:43.013Z,29.74
2022-08-02T12:22:32.628Z,30.08
2022-08-02T12:25:34.046Z,29.56
2022-08-02T12:28:28.853Z,29.35
2022-08-02T12:31:09.580Z,29.46
2022-08-02T12:33:59.676Z,30.57
2022-08-02T12:36:34.535Z,30.96
2022-08-02T12:39:12.203Z,30.09
2022-08-02T12:41:51.981Z,30.58
2022-08-02T12:44:27.461Z,29.87
2022-08-02T12:47:09.662Z,30.00
2022-08-02T12:49:44.782Z,29.45
2022-08-02T12:52:36.603Z,29.76
2022-08-02T12:56:01.308Z,29.21
2022-08-02T12:58:24.347Z,29.45
2022-08-02T13:01:06.713Z,29.87
2022-08-02T13:04:07.439Z,29.13
2022-08-02T13:06:45.676Z,30.77
2022-08-02T13:12:04.452Z,31.12
2022-08-02T13:14:47.709Z,30.64
2022-08-02T13:17:23.488Z,30.08
2022-08-02T13:19:57.831Z,29.71
2022-08-02T13:22:51.161Z,30.12
2022-08-02T13:25:33.526Z,30.32
2022-08-02T13:28:06.852Z,30.03
2022-08-02T13:30:46.739Z,29.63
2022-08-02T13:33:20.888Z,29.15
2022-08-02T13:35:53.663Z,29.20
2022-08-02T13:38:35.560Z,29.49
2022-08-02T13:41:16.632Z,29.19
2022-08-02T13:43:52.586Z,29.01
2022-08-02T13:46:33.845Z,28.86
2022-08-02T13:49:05.985Z,28.86
2022-08-02T13:51:38.030Z,28.83
2022-08-02T13:54:33.836Z,28.92
2022-08-02T13:57:07.541Z,28.86
2022-08-02T13:59:57.166Z,28.97
2022-08-02T14:02:31.734Z,28.86
2022-08-02T14:05:08.128Z,28.69
2022-08-02T14:07:39.501Z,28.50
2022-08-02T14:10:14.344Z,28.76
2022-08-02T14:12:46.505Z,28.92
2022-08-02T14:15:33.031Z,29.18
2022-08-02T14:18:05.675Z,29.81
2022-08-02T14:20:39.967Z,29.55
2022-08-02T14:23:15.985Z,31.46
2022-08-02T14:25:45.488Z,35.18
2022-08-02T14:28:22.151Z,36.80
2022-08-02T14:30:56.991Z,35.96
2022-08-02T14:33:28.522Z,38.15
2022-08-02T14:36:06.094Z,38.81
2022-08-02T14:38:40.123Z,39.29
2022-08-02T14:41:13.492Z,38.80
2022-08-02T14:44:04.192Z,39.85
2022-08-02T14:46:38.267Z,40.57
2022-08-02T14:49:11.974Z,39.59
2022-08-02T14:51:48.849Z,39.82
2022-08-02T14:57:14.513Z,38.38
2022-08-02T15:00:02.081Z,39.51
2022-08-02T15:02:39.339Z,39.95
2022-08-02T15:05:13.189Z,38.73
2022-08-02T15:07:49.367Z,35.79
2022-08-02T15:10:21.049Z,35.10
2022-08-02T15:12:57.165Z,34.97
2022-08-02T15:15:43.605Z,35.94
2022-08-02T15:21:35.765Z,32.48
2022-08-02T15:24:02.352Z,32.02
2022-08-02T15:26:36.249Z,31.58
2022-08-02T15:29:10.070Z,31.54
2022-08-02T15:31:41.712Z,31.14
2022-08-02T15:34:22.590Z,30.71
2022-08-02T15:36:53.865Z,30.70
2022-08-02T15:39:25.238Z,30.46
2022-08-02T15:41:57.226Z,30.25
2022-08-02T15:44:38.714Z,31.32
2022-08-02T15:47:15.237Z,30.86
2022-08-02T15:49:53.951Z,30.52
2022-08-02T15:52:32.625Z,30.61
2022-08-02T15:55:08.214Z,30.04
2022-08-02T15:57:42.696Z,30.15
2022-08-02T16:00:18.428Z,29.97
2022-08-02T16:03:04.674Z,29.70
2022-08-02T16:05:37.322Z,29.30
2022-08-02T16:08:11.104Z,29.63
2022-08-02T16:10:46.544Z,29.06
2022-08-02T16:13:48.984Z,28.91
2022-08-02T16:16:38.732Z,28.77
2022-08-02T16:19:46.728Z,28.65
2022-08-02T16:22:11.465Z,28.28
2022-08-02T16:24:42.853Z,28.56
2022-08-02T16:30:09.793Z,28.22
2022-08-02T16:32:44.559Z,28.14
2022-08-02T16:35:15.733Z,28.03
2022-08-02T16:37:52.367Z,27.71
2022-08-02T16:40:25.253Z,27.77
2022-08-02T16:43:00.436Z,27.61
2022-08-02T16:45:32.672Z,27.87
2022-08-02T16:48:12.202Z,27.97
2022-08-02T16:50:49.851Z,27.72
2022-08-02T16:53:30.552Z,27.56
2022-08-02T16:56:09.535Z,27.37
2022-08-02T16:58:47.646Z,27.31
2022-08-02T17:01:27.600Z,26.95
2022-08-02T17:04:17.918Z,26.86
2022-08-02T17:06:52.056Z,26.86
2022-08-02T17:10:04.554Z,26.89
2022-08-02T17:12:15.281Z,26.82
2022-08-02T17:14:55.405Z,26.65
2022-08-02T17:17:34.121Z,26.25
2022-08-02T17:20:20.771Z,26.21
2022-08-02T17:23:00.637Z,26.12
2022-08-02T17:25:32.631Z,26.14
2022-08-02T17:28:03.747Z,26.15
2022-08-02T17:30:43.092Z,26.16
2022-08-02T17:33:25.870Z,26.15
2022-08-02T17:36:06.503Z,25.84
2022-08-02T17:38:50.109Z,25.71
2022-08-02T17:41:37.410Z,25.46
2022-08-02T17:44:37.722Z,25.26
2022-08-02T17:47:11.594Z,25.20
2022-08-02T17:49:49.061Z,25.10
2022-08-02T17:52:50.305Z,24.86
2022-08-02T17:55:26.661Z,25.00
2022-08-02T17:58:00.164Z,24.81
2022-08-02T18:00:37.404Z,24.56
2022-08-02T18:03:10.837Z,24.57
2022-08-02T18:05:53.693Z,24.61
2022-08-02T18:08:27.789Z,24.29
2022-08-02T18:11:01.638Z,24.11
2022-08-02T18:13:35.874Z,24.12
2022-08-02T18:16:21.398Z,24.05
2022-08-02T18:18:53.255Z,24.06
2022-08-02T18:21:22.962Z,23.81
2022-08-02T18:24:01.449Z,23.89
2022-08-02T18:26:44.757Z,23.71
2022-08-02T18:29:21.991Z,23.42
2022-08-02T18:32:04.413Z,23.31
2022-08-02T18:34:39.899Z,23.18
2022-08-02T18:37:15.787Z,23.05
2022-08-02T18:39:53.650Z,23.07
2022-08-02T18:42:28.942Z,22.80
2022-08-02T18:44:59.815Z,22.71
2022-08-02T18:47:32.872Z,22.96
2022-08-02T18:50:03.845Z,22.96
2022-08-02T18:52:35.402Z,22.78
2022-08-02T18:55:17.543Z,22.52
2022-08-02T18:58:18.519Z,22.36
2022-08-02T19:00:57.484Z,22.16
2022-08-02T19:03:37.285Z,22.14
2022-08-02T19:06:27.451Z,22.17
2022-08-02T19:09:12.653Z,22.06
2022-08-02T19:11:50.503Z,21.96
2022-08-02T19:14:27.760Z,21.97
2022-08-02T19:17:15.907Z,21.92
2022-08-02T19:19:57.294Z,21.90
2022-08-02T19:25:16.152Z,21.47
2022-08-02T19:27:54.899Z,21.41
2022-08-02T19:30:37.379Z,21.32
2022-08-02T19:33:54.683Z,21.43
2022-08-02T19:36:16.971Z,21.18
2022-08-02T19:38:51.892Z,21.27
2022-08-02T19:41:25.881Z,21.36
2022-08-02T19:44:25.378Z,21.34
2022-08-02T19:46:52.581Z,21.14
2022-08-02T19:49:39.517Z,20.91
2022-08-02T19:52:21.600Z,20.71
2022-08-02T19:55:00.705Z,20.94
2022-08-02T19:57:57.394Z,20.95
2022-08-02T20:00:32.821Z,21.18
2022-08-02T20:03:07.042Z,21.17
2022-08-02T20:05:38.199Z,21.34
2022-08-02T20:08:10.839Z,21.27
2022-08-02T20:11:09.697Z,21.31
2022-08-02T20:13:55.655Z,20.91
2022-08-02T20:16:27.963Z,20.28
2022-08-02T20:19:10.137Z,20.89
2022-08-02T20:21:59.447Z,20.92
2022-08-02T20:24:30.349Z,20.71
2022-08-02T20:27:16.341Z,20.71
2022-08-02T20:29:53.410Z,20.56
2022-08-02T20:32:33.283Z,20.68
2022-08-02T20:35:07.276Z,20.66
2022-08-02T20:38:00.892Z,20.36
2022-08-02T20:40:35.335Z,20.65
2022-08-02T20:43:10.199Z,20.76
2022-08-02T20:45:40.622Z,20.61
2022-08-02T20:48:15.737Z,20.61
2022-08-02T20:50:55.356Z,20.53
2022-08-02T20:53:56.057Z,20.31
2022-08-02T20:56:27.956Z,20.45
2022-08-02T20:59:03.745Z,20.63
2022-08-02T21:01:39.259Z,20.45
2022-08-02T21:04:16.584Z,20.40
2022-08-02T21:06:56.476Z,20.08
2022-08-02T21:09:52.780Z,19.83
2022-08-02T21:12:30.150Z,19.75
2022-08-02T21:15:02.883Z,19.88
2022-08-02T21:17:44.591Z,20.11
2022-08-02T21:20:29.509Z,20.13
2022-08-02T21:23:04.635Z,20.10
2022-08-02T21:25:57.487Z,20.13
2022-08-02T21:28:43.742Z,19.79
2022-08-02T21:31:33.403Z,19.90
2022-08-02T21:34:21.856Z,19.68
2022-08-02T21:37:10.185Z,19.82
2022-08-02T21:39:41.553Z,19.73
2022-08-02T21:42:22.604Z,19.44
2022-08-02T21:44:57.291Z,19.28
2022-08-02T21:47:37.385Z,19.58
2022-08-02T21:50:16.672Z,19.52
2022-08-02T21:52:53.833Z,19.55
2022-08-02T21:56:02.620Z,19.59
2022-08-02T21:58:30.225Z,19.54
2022-08-02T22:01:02.477Z,19.41
2022-08-02T22:03:42.631Z,19.51
2022-08-02T22:06:33.162Z,19.44
2022-08-02T22:09:04.054Z,19.03
2022-08-02T22:11:55.304Z,19.06
2022-08-02T22:14:26.126Z,19.38
2022-08-02T22:16:58.426Z,19.16
2022-08-02T22:19:34.432Z,18.76
2022-08-02T22:22:14.932Z,19.12
2022-08-02T22:24:56.634Z,19.30
2022-08-02T22:28:13.278Z,19.23
2022-08-02T22:30:26.980Z,19.10
2022-08-02T22:33:15.077Z,19.01
2022-08-02T22:36:11.847Z,18.93
2022-08-02T22:38:44.429Z,19.09
2022-08-02T22:41:22.183Z,19.25
2022-08-02T22:44:06.080Z,19.03
2022-08-02T22:46:50.537Z,19.22
2022-08-02T22:49:38.642Z,19.24
2022-08-02T22:52:16.913Z,18.96
2022-08-02T22:55:04.940Z,19.02
2022-08-02T22:57:56.572Z,18.94
2022-08-02T23:00:30.178Z,17.78
2022-08-02T23:03:06.632Z,18.90
2022-08-02T23:05:52.948Z,18.72
2022-08-02T23:08:31.793Z,18.61
2022-08-02T23:11:09.205Z,18.53
2022-08-02T23:13:48.583Z,18.44
2022-08-02T23:16:56.541Z,18.57
2022-08-02T23:19:45.865Z,18.50
2022-08-02T23:22:18.175Z,18.82
2022-08-02T23:24:51.059Z,19.01
2022-08-02T23:27:23.121Z,18.84
2022-08-02T23:29:55.151Z,18.87
2022-08-02T23:32:30.205Z,18.90
2022-08-02T23:35:08.848Z,18.72
2022-08-02T23:37:59.667Z,18.58
2022-08-02T23:40:40.621Z,18.56
2022-08-02T23:43:16.339Z,18.66
2022-08-02T23:45:46.724Z,18.54
2022-08-02T23:51:03.282Z,18.54
2022-08-02T23:53:33.963Z,18.52
2022-08-02T23:56:03.364Z,18.42
2022-08-02T23:58:37.556Z,18.36
